sensor_id;sensor_type;location;lat;lon;timestamp;P1;durP1;ratioP1;P2;durP2;ratioP2
48861;SDS011;34681;49.188;-0.374;2023-02-28T00:00:26;7.00;;;5.50;;
48861;SDS011;34681;49.188;-0.374;2023-02-28T00:02:52;6.10;;;5.40;;
48861;SDS011;34681;49.188;-0.374;2023-02-28T00:05:18;6.60;;;6.00;;
48861;SDS011;34681;49.188;-0.374;2023-02-28T00:07:46;6.37;;;5.77;;
48861;SDS011;34681;49.188;-0.374;2023-02-28T00:10:14;7.00;;;5.77;;
48861;SDS011;34681;49.188;-0.374;2023-02-28T00:12:45;6.70;;;6.20;;
48861;SDS011;34681;49.188;-0.374;2023-02-28T00:15:17;6.80;;;6.10;;
48861;SDS011;34681;49.188;-0.374;2023-02-28T00:17:43;8.37;;;5.97;;
48861;SDS011;34681;49.188;-0.374;2023-02-28T00:20:09;5.97;;;5.57;;
48861;SDS011;34681;49.188;-0.374;2023-02-28T00:22:43;6.70;;;6.20;;
48861;SDS011;34681;49.188;-0.374;2023-02-28T00:25:11;6.80;;;6.20;;
48861;SDS011;34681;49.188;-0.374;2023-02-28T00:27:38;7.40;;;6.60;;
48861;SDS011;34681;49.188;-0.374;2023-02-28T00:30:05;7.20;;;6.67;;
48861;SDS011;34681;49.188;-0.374;2023-02-28T00:32:32;6.87;;;6.20;;
48861;SDS011;34681;49.188;-0.374;2023-02-28T00:34:57;6.83;;;6.23;;
48861;SDS011;34681;49.188;-0.374;2023-02-28T00:37:23;11.83;;;6.20;;
48861;SDS011;34681;49.188;-0.374;2023-02-28T00:39:48;11.50;;;7.03;;
48861;SDS011;34681;49.188;-0.374;2023-02-28T00:42:13;7.70;;;7.00;;
48861;SDS011;34681;49.188;-0.374;2023-02-28T00:44:39;7.00;;;6.30;;
48861;SDS011;34681;49.188;-0.374;2023-02-28T00:47:04;8.40;;;7.77;;
48861;SDS011;34681;49.188;-0.374;2023-02-28T00:49:30;8.00;;;6.67;;
48861;SDS011;34681;49.188;-0.374;2023-02-28T00:51:56;7.23;;;6.57;;
48861;SDS011;34681;49.188;-0.374;2023-02-28T00:54:21;11.70;;;7.80;;
48861;SDS011;34681;49.188;-0.374;2023-02-28T00:56:48;8.73;;;6.90;;
48861;SDS011;34681;49.188;-0.374;2023-02-28T00:59:15;8.23;;;7.53;;
48861;SDS011;34681;49.188;-0.374;2023-02-28T01:01:42;10.87;;;7.53;;
48861;SDS011;34681;49.188;-0.374;2023-02-28T01:04:08;8.57;;;7.77;;
48861;SDS011;34681;49.188;-0.374;2023-02-28T01:06:34;8.43;;;7.83;;
48861;SDS011;34681;49.188;-0.374;2023-02-28T01:09:00;8.03;;;7.43;;
48861;SDS011;34681;49.188;-0.374;2023-02-28T01:11:26;9.83;;;8.30;;
48861;SDS011;34681;49.188;-0.374;2023-02-28T01:13:51;15.10;;;9.03;;
48861;SDS011;34681;49.188;-0.374;2023-02-28T01:16:17;9.37;;;8.60;;
48861;SDS011;34681;49.188;-0.374;2023-02-28T01:18:42;8.77;;;8.00;;
48861;SDS011;34681;49.188;-0.374;2023-02-28T01:21:10;8.63;;;7.93;;
48861;SDS011;34681;49.188;-0.374;2023-02-28T01:23:38;8.67;;;7.97;;
48861;SDS011;34681;49.188;-0.374;2023-02-28T01:28:31;9.80;;;8.10;;
48861;SDS011;34681;49.188;-0.374;2023-02-28T01:30:56;9.67;;;8.80;;
48861;SDS011;34681;49.188;-0.374;2023-02-28T01:33:21;9.60;;;8.53;;
48861;SDS011;34681;49.188;-0.374;2023-02-28T01:35:47;9.90;;;8.67;;
48861;SDS011;34681;49.188;-0.374;2023-02-28T01:38:13;8.97;;;8.20;;
48861;SDS011;34681;49.188;-0.374;2023-02-28T01:40:39;12.20;;;9.27;;
48861;SDS011;34681;49.188;-0.374;2023-02-28T01:43:05;9.30;;;8.30;;
48861;SDS011;34681;49.188;-0.374;2023-02-28T01:45:44;8.93;;;8.13;;
48861;SDS011;34681;49.188;-0.374;2023-02-28T01:48:09;8.90;;;8.20;;
48861;SDS011;34681;49.188;-0.374;2023-02-28T01:50:36;9.60;;;8.80;;
48861;SDS011;34681;49.188;-0.374;2023-02-28T01:53:06;10.27;;;9.37;;
48861;SDS011;34681;49.188;-0.374;2023-02-28T01:55:34;12.33;;;9.27;;
48861;SDS011;34681;49.188;-0.374;2023-02-28T01:58:01;9.77;;;8.90;;
48861;SDS011;34681;49.188;-0.374;2023-02-28T02:00:29;10.13;;;9.33;;
48861;SDS011;34681;49.188;-0.374;2023-02-28T02:02:59;8.77;;;8.13;;
48861;SDS011;34681;49.188;-0.374;2023-02-28T02:05:32;10.97;;;9.97;;
48861;SDS011;34681;49.188;-0.374;2023-02-28T02:08:03;10.30;;;9.30;;
48861;SDS011;34681;49.188;-0.374;2023-02-28T02:10:32;9.63;;;8.23;;
48861;SDS011;34681;49.188;-0.374;2023-02-28T02:18:47;8.73;;;7.83;;
48861;SDS011;34681;49.188;-0.374;2023-02-28T02:39:49;9.60;;;8.47;;
48861;SDS011;34681;49.188;-0.374;2023-02-28T02:42:23;8.97;;;8.17;;
48861;SDS011;34681;49.188;-0.374;2023-02-28T02:45:01;8.20;;;7.67;;
48861;SDS011;34681;49.188;-0.374;2023-02-28T02:47:32;10.80;;;9.43;;
48861;SDS011;34681;49.188;-0.374;2023-02-28T02:50:01;9.97;;;8.87;;
48861;SDS011;34681;49.188;-0.374;2023-02-28T02:52:32;9.80;;;9.07;;
48861;SDS011;34681;49.188;-0.374;2023-02-28T02:55:01;9.47;;;8.70;;
48861;SDS011;34681;49.188;-0.374;2023-02-28T02:57:36;10.73;;;9.73;;
48861;SDS011;34681;49.188;-0.374;2023-02-28T03:00:10;9.80;;;8.80;;
48861;SDS011;34681;49.188;-0.374;2023-02-28T03:02:37;10.43;;;8.83;;
48861;SDS011;34681;49.188;-0.374;2023-02-28T03:05:06;11.30;;;9.67;;
48861;SDS011;34681;49.188;-0.374;2023-02-28T03:07:37;10.70;;;9.60;;
48861;SDS011;34681;49.188;-0.374;2023-02-28T03:10:02;10.03;;;9.10;;
48861;SDS011;34681;49.188;-0.374;2023-02-28T03:12:32;12.23;;;9.77;;
48861;SDS011;34681;49.188;-0.374;2023-02-28T03:15:11;9.43;;;8.63;;
48861;SDS011;34681;49.188;-0.374;2023-02-28T03:20:36;11.63;;;8.87;;
48861;SDS011;34681;49.188;-0.374;2023-02-28T03:30:54;9.90;;;9.10;;
48861;SDS011;34681;49.188;-0.374;2023-02-28T03:33:44;12.73;;;10.13;;
48861;SDS011;34681;49.188;-0.374;2023-02-28T03:36:25;12.20;;;10.57;;
48861;SDS011;34681;49.188;-0.374;2023-02-28T03:39:03;12.23;;;11.23;;
48861;SDS011;34681;49.188;-0.374;2023-02-28T03:41:36;13.10;;;11.03;;
48861;SDS011;34681;49.188;-0.374;2023-02-28T03:44:17;12.13;;;10.90;;
48861;SDS011;34681;49.188;-0.374;2023-02-28T03:46:55;16.83;;;11.30;;
48861;SDS011;34681;49.188;-0.374;2023-02-28T03:49:30;14.00;;;11.73;;
48861;SDS011;34681;49.188;-0.374;2023-02-28T03:52:00;14.20;;;12.63;;
48861;SDS011;34681;49.188;-0.374;2023-02-28T03:54:30;15.63;;;12.30;;
48861;SDS011;34681;49.188;-0.374;2023-02-28T03:57:06;14.50;;;13.10;;
48861;SDS011;34681;49.188;-0.374;2023-02-28T03:59:42;14.60;;;13.20;;
48861;SDS011;34681;49.188;-0.374;2023-02-28T04:02:12;13.53;;;12.10;;
48861;SDS011;34681;49.188;-0.374;2023-02-28T04:04:37;16.83;;;12.17;;
48861;SDS011;34681;49.188;-0.374;2023-02-28T04:07:04;16.53;;;14.93;;
48861;SDS011;34681;49.188;-0.374;2023-02-28T04:09:31;14.33;;;13.10;;
48861;SDS011;34681;49.188;-0.374;2023-02-28T04:11:57;16.77;;;13.77;;
48861;SDS011;34681;49.188;-0.374;2023-02-28T04:14:23;15.37;;;13.93;;
48861;SDS011;34681;49.188;-0.374;2023-02-28T04:16:48;17.30;;;12.90;;
48861;SDS011;34681;49.188;-0.374;2023-02-28T04:19:15;15.40;;;13.90;;
48861;SDS011;34681;49.188;-0.374;2023-02-28T04:21:42;12.80;;;11.60;;
48861;SDS011;34681;49.188;-0.374;2023-02-28T04:24:10;15.67;;;13.80;;
48861;SDS011;34681;49.188;-0.374;2023-02-28T04:26:41;16.80;;;14.53;;
48861;SDS011;34681;49.188;-0.374;2023-02-28T04:29:09;15.83;;;14.37;;
48861;SDS011;34681;49.188;-0.374;2023-02-28T04:31:36;16.93;;;15.23;;
48861;SDS011;34681;49.188;-0.374;2023-02-28T04:34:02;16.97;;;15.27;;
48861;SDS011;34681;49.188;-0.374;2023-02-28T04:36:28;15.27;;;13.67;;
48861;SDS011;34681;49.188;-0.374;2023-02-28T04:38:53;16.90;;;15.40;;
48861;SDS011;34681;49.188;-0.374;2023-02-28T04:41:19;18.00;;;14.83;;
48861;SDS011;34681;49.188;-0.374;2023-02-28T04:43:45;15.73;;;14.10;;
48861;SDS011;34681;49.188;-0.374;2023-02-28T04:46:10;17.73;;;15.60;;
48861;SDS011;34681;49.188;-0.374;2023-02-28T04:48:36;18.17;;;16.27;;
48861;SDS011;34681;49.188;-0.374;2023-02-28T04:51:04;18.13;;;16.40;;
48861;SDS011;34681;49.188;-0.374;2023-02-28T04:53:30;17.30;;;15.60;;
48861;SDS011;34681;49.188;-0.374;2023-02-28T04:55:56;16.67;;;15.17;;
48861;SDS011;34681;49.188;-0.374;2023-02-28T04:58:22;18.30;;;15.77;;
48861;SDS011;34681;49.188;-0.374;2023-02-28T05:00:48;24.20;;;15.23;;
48861;SDS011;34681;49.188;-0.374;2023-02-28T05:03:14;16.90;;;15.20;;
48861;SDS011;34681;49.188;-0.374;2023-02-28T05:05:39;14.93;;;13.53;;
48861;SDS011;34681;49.188;-0.374;2023-02-28T05:08:05;16.13;;;14.53;;
48861;SDS011;34681;49.188;-0.374;2023-02-28T05:10:30;16.57;;;14.93;;
48861;SDS011;34681;49.188;-0.374;2023-02-28T05:12:56;16.97;;;15.20;;
48861;SDS011;34681;49.188;-0.374;2023-02-28T05:15:22;18.73;;;14.93;;
48861;SDS011;34681;49.188;-0.374;2023-02-28T05:17:47;15.80;;;14.20;;
48861;SDS011;34681;49.188;-0.374;2023-02-28T05:20:13;17.10;;;15.50;;
48861;SDS011;34681;49.188;-0.374;2023-02-28T05:22:38;18.17;;;15.90;;
48861;SDS011;34681;49.188;-0.374;2023-02-28T05:25:04;18.33;;;14.83;;
48861;SDS011;34681;49.188;-0.374;2023-02-28T05:27:30;17.90;;;15.83;;
48861;SDS011;34681;49.188;-0.374;2023-02-28T05:29:56;16.00;;;14.30;;
48861;SDS011;34681;49.188;-0.374;2023-02-28T05:32:21;19.20;;;15.27;;
48861;SDS011;34681;49.188;-0.374;2023-02-28T05:34:47;18.00;;;15.47;;
48861;SDS011;34681;49.188;-0.374;2023-02-28T05:37:13;20.93;;;16.63;;
48861;SDS011;34681;49.188;-0.374;2023-02-28T05:39:39;17.33;;;15.27;;
48861;SDS011;34681;49.188;-0.374;2023-02-28T05:42:05;17.80;;;16.10;;
48861;SDS011;34681;49.188;-0.374;2023-02-28T05:44:31;15.17;;;13.77;;
48861;SDS011;34681;49.188;-0.374;2023-02-28T05:46:56;17.73;;;16.00;;
48861;SDS011;34681;49.188;-0.374;2023-02-28T05:49:22;16.30;;;14.80;;
48861;SDS011;34681;49.188;-0.374;2023-02-28T05:51:47;16.37;;;14.87;;
48861;SDS011;34681;49.188;-0.374;2023-02-28T05:54:12;17.00;;;15.40;;
48861;SDS011;34681;49.188;-0.374;2023-02-28T05:56:38;16.97;;;14.93;;
48861;SDS011;34681;49.188;-0.374;2023-02-28T05:59:05;16.97;;;15.40;;
48861;SDS011;34681;49.188;-0.374;2023-02-28T06:01:35;17.30;;;15.60;;
48861;SDS011;34681;49.188;-0.374;2023-02-28T06:04:04;19.10;;;15.90;;
48861;SDS011;34681;49.188;-0.374;2023-02-28T06:06:31;18.30;;;16.47;;
48861;SDS011;34681;49.188;-0.374;2023-02-28T06:08:59;17.90;;;15.60;;
48861;SDS011;34681;49.188;-0.374;2023-02-28T06:11:25;16.70;;;14.97;;
48861;SDS011;34681;49.188;-0.374;2023-02-28T06:13:55;18.93;;;16.03;;
48861;SDS011;34681;49.188;-0.374;2023-02-28T06:16:25;17.23;;;15.40;;
48861;SDS011;34681;49.188;-0.374;2023-02-28T06:18:52;18.30;;;15.70;;
48861;SDS011;34681;49.188;-0.374;2023-02-28T06:21:18;18.23;;;16.37;;
48861;SDS011;34681;49.188;-0.374;2023-02-28T06:23:43;17.87;;;16.07;;
48861;SDS011;34681;49.188;-0.374;2023-02-28T06:26:09;18.17;;;16.27;;
48861;SDS011;34681;49.188;-0.374;2023-02-28T06:28:35;19.17;;;17.23;;
48861;SDS011;34681;49.188;-0.374;2023-02-28T06:31:05;20.70;;;16.93;;
48861;SDS011;34681;49.188;-0.374;2023-02-28T06:33:32;16.30;;;14.60;;
48861;SDS011;34681;49.188;-0.374;2023-02-28T06:35:57;18.50;;;16.60;;
48861;SDS011;34681;49.188;-0.374;2023-02-28T06:38:23;20.67;;;15.30;;
48861;SDS011;34681;49.188;-0.374;2023-02-28T06:40:55;21.00;;;16.87;;
48861;SDS011;34681;49.188;-0.374;2023-02-28T06:43:22;19.13;;;17.20;;
48861;SDS011;34681;49.188;-0.374;2023-02-28T06:45:48;19.27;;;17.30;;
48861;SDS011;34681;49.188;-0.374;2023-02-28T06:48:14;19.77;;;17.03;;
48861;SDS011;34681;49.188;-0.374;2023-02-28T06:50:39;19.90;;;15.87;;
48861;SDS011;34681;49.188;-0.374;2023-02-28T06:53:05;16.97;;;15.27;;
48861;SDS011;34681;49.188;-0.374;2023-02-28T06:55:33;19.70;;;17.00;;
48861;SDS011;34681;49.188;-0.374;2023-02-28T06:58:02;18.77;;;16.73;;
48861;SDS011;34681;49.188;-0.374;2023-02-28T07:00:27;20.70;;;18.30;;
48861;SDS011;34681;49.188;-0.374;2023-02-28T07:02:52;20.10;;;18.20;;
48861;SDS011;34681;49.188;-0.374;2023-02-28T07:05:20;19.53;;;17.40;;
48861;SDS011;34681;49.188;-0.374;2023-02-28T07:07:45;20.10;;;17.30;;
48861;SDS011;34681;49.188;-0.374;2023-02-28T07:10:12;18.70;;;16.43;;
48861;SDS011;34681;49.188;-0.374;2023-02-28T07:12:39;21.80;;;17.07;;
48861;SDS011;34681;49.188;-0.374;2023-02-28T07:15:05;19.90;;;16.37;;
48861;SDS011;34681;49.188;-0.374;2023-02-28T07:17:30;21.30;;;17.40;;
48861;SDS011;34681;49.188;-0.374;2023-02-28T07:19:56;19.73;;;16.40;;
48861;SDS011;34681;49.188;-0.374;2023-02-28T07:22:21;20.43;;;17.30;;
48861;SDS011;34681;49.188;-0.374;2023-02-28T07:24:47;20.57;;;17.23;;
48861;SDS011;34681;49.188;-0.374;2023-02-28T07:27:12;20.10;;;18.00;;
48861;SDS011;34681;49.188;-0.374;2023-02-28T07:29:50;19.53;;;17.27;;
48861;SDS011;34681;49.188;-0.374;2023-02-28T07:32:16;20.60;;;17.77;;
48861;SDS011;34681;49.188;-0.374;2023-02-28T07:34:42;19.70;;;17.03;;
48861;SDS011;34681;49.188;-0.374;2023-02-28T07:37:07;19.87;;;17.73;;
48861;SDS011;34681;49.188;-0.374;2023-02-28T07:39:33;17.83;;;15.93;;
48861;SDS011;34681;49.188;-0.374;2023-02-28T07:41:58;18.73;;;15.80;;
48861;SDS011;34681;49.188;-0.374;2023-02-28T07:44:24;21.50;;;16.57;;
48861;SDS011;34681;49.188;-0.374;2023-02-28T07:46:50;18.00;;;16.10;;
48861;SDS011;34681;49.188;-0.374;2023-02-28T07:49:16;19.07;;;15.77;;
48861;SDS011;34681;49.188;-0.374;2023-02-28T07:51:41;20.20;;;15.50;;
48861;SDS011;34681;49.188;-0.374;2023-02-28T07:54:06;16.73;;;14.80;;
48861;SDS011;34681;49.188;-0.374;2023-02-28T07:56:32;19.67;;;15.20;;
48861;SDS011;34681;49.188;-0.374;2023-02-28T07:58:58;17.20;;;15.47;;
48861;SDS011;34681;49.188;-0.374;2023-02-28T08:01:23;17.37;;;15.40;;
48861;SDS011;34681;49.188;-0.374;2023-02-28T08:03:49;18.93;;;14.90;;
48861;SDS011;34681;49.188;-0.374;2023-02-28T08:06:18;14.97;;;13.47;;
48861;SDS011;34681;49.188;-0.374;2023-02-28T08:08:45;17.03;;;14.07;;
48861;SDS011;34681;49.188;-0.374;2023-02-28T08:11:11;17.57;;;15.70;;
48861;SDS011;34681;49.188;-0.374;2023-02-28T08:13:37;17.83;;;15.67;;
48861;SDS011;34681;49.188;-0.374;2023-02-28T08:16:02;19.60;;;14.30;;
48861;SDS011;34681;49.188;-0.374;2023-02-28T08:18:27;18.60;;;13.77;;
48861;SDS011;34681;49.188;-0.374;2023-02-28T08:20:53;16.23;;;14.63;;
48861;SDS011;34681;49.188;-0.374;2023-02-28T08:23:18;14.50;;;13.10;;
48861;SDS011;34681;49.188;-0.374;2023-02-28T08:25:44;16.33;;;13.80;;
48861;SDS011;34681;49.188;-0.374;2023-02-28T08:28:09;14.87;;;13.30;;
48861;SDS011;34681;49.188;-0.374;2023-02-28T08:30:35;15.30;;;13.70;;
48861;SDS011;34681;49.188;-0.374;2023-02-28T08:33:00;16.00;;;13.77;;
48861;SDS011;34681;49.188;-0.374;2023-02-28T08:35:29;19.50;;;13.60;;
48861;SDS011;34681;49.188;-0.374;2023-02-28T08:38:23;19.17;;;14.20;;
48861;SDS011;34681;49.188;-0.374;2023-02-28T08:40:48;15.57;;;14.07;;
48861;SDS011;34681;49.188;-0.374;2023-02-28T08:43:14;14.90;;;13.37;;
48861;SDS011;34681;49.188;-0.374;2023-02-28T08:45:40;18.60;;;14.83;;
48861;SDS011;34681;49.188;-0.374;2023-02-28T08:48:05;15.80;;;14.07;;
48861;SDS011;34681;49.188;-0.374;2023-02-28T08:50:31;14.30;;;12.73;;
48861;SDS011;34681;49.188;-0.374;2023-02-28T08:52:57;15.33;;;13.77;;
48861;SDS011;34681;49.188;-0.374;2023-02-28T08:55:23;12.60;;;11.33;;
48861;SDS011;34681;49.188;-0.374;2023-02-28T08:57:48;14.33;;;13.00;;
48861;SDS011;34681;49.188;-0.374;2023-02-28T09:00:13;14.73;;;12.60;;
48861;SDS011;34681;49.188;-0.374;2023-02-28T09:02:39;14.47;;;12.33;;
48861;SDS011;34681;49.188;-0.374;2023-02-28T09:05:07;12.07;;;11.03;;
48861;SDS011;34681;49.188;-0.374;2023-02-28T09:07:33;12.63;;;11.47;;
48861;SDS011;34681;49.188;-0.374;2023-02-28T09:09:58;15.93;;;12.60;;
48861;SDS011;34681;49.188;-0.374;2023-02-28T09:12:25;13.73;;;12.43;;
48861;SDS011;34681;49.188;-0.374;2023-02-28T09:14:52;12.27;;;11.10;;
48861;SDS011;34681;49.188;-0.374;2023-02-28T09:17:18;12.23;;;11.10;;
48861;SDS011;34681;49.188;-0.374;2023-02-28T09:19:44;11.17;;;10.10;;
48861;SDS011;34681;49.188;-0.374;2023-02-28T09:22:10;10.93;;;9.80;;
48861;SDS011;34681;49.188;-0.374;2023-02-28T09:24:36;11.10;;;10.10;;
48861;SDS011;34681;49.188;-0.374;2023-02-28T09:27:02;12.70;;;11.20;;
48861;SDS011;34681;49.188;-0.374;2023-02-28T09:29:28;12.93;;;11.20;;
48861;SDS011;34681;49.188;-0.374;2023-02-28T09:31:53;10.40;;;9.50;;
48861;SDS011;34681;49.188;-0.374;2023-02-28T09:34:18;11.63;;;10.57;;
48861;SDS011;34681;49.188;-0.374;2023-02-28T09:36:44;10.37;;;9.57;;
48861;SDS011;34681;49.188;-0.374;2023-02-28T09:39:10;8.83;;;7.63;;
48861;SDS011;34681;49.188;-0.374;2023-02-28T09:41:38;8.80;;;8.00;;
48861;SDS011;34681;49.188;-0.374;2023-02-28T09:44:13;9.20;;;6.43;;
48861;SDS011;34681;49.188;-0.374;2023-02-28T09:46:44;8.67;;;7.70;;
48861;SDS011;34681;49.188;-0.374;2023-02-28T09:49:17;10.70;;;6.60;;
48861;SDS011;34681;49.188;-0.374;2023-02-28T09:51:50;6.83;;;6.33;;
48861;SDS011;34681;49.188;-0.374;2023-02-28T09:54:22;7.10;;;6.60;;
48861;SDS011;34681;49.188;-0.374;2023-02-28T09:56:50;6.90;;;5.33;;
48861;SDS011;34681;49.188;-0.374;2023-02-28T10:02:13;6.60;;;4.60;;
48861;SDS011;34681;49.188;-0.374;2023-02-28T10:04:50;8.37;;;6.63;;
48861;SDS011;34681;49.188;-0.374;2023-02-28T10:10:06;5.90;;;5.40;;
48861;SDS011;34681;49.188;-0.374;2023-02-28T10:12:44;6.30;;;5.70;;
48861;SDS011;34681;49.188;-0.374;2023-02-28T10:15:15;7.03;;;6.33;;
48861;SDS011;34681;49.188;-0.374;2023-02-28T10:17:42;6.23;;;5.73;;
48861;SDS011;34681;49.188;-0.374;2023-02-28T10:20:17;6.93;;;6.33;;
48861;SDS011;34681;49.188;-0.374;2023-02-28T10:25:41;7.50;;;5.90;;
48861;SDS011;34681;49.188;-0.374;2023-02-28T10:28:14;7.80;;;7.10;;
48861;SDS011;34681;49.188;-0.374;2023-02-28T10:30:41;10.30;;;7.27;;
48861;SDS011;34681;49.188;-0.374;2023-02-28T10:35:53;7.83;;;7.03;;
48861;SDS011;34681;49.188;-0.374;2023-02-28T10:38:37;8.00;;;7.20;;
48861;SDS011;34681;49.188;-0.374;2023-02-28T10:41:09;6.87;;;6.37;;
48861;SDS011;34681;49.188;-0.374;2023-02-28T10:43:40;7.80;;;7.00;;
48861;SDS011;34681;49.188;-0.374;2023-02-28T10:51:00;8.00;;;6.50;;
48861;SDS011;34681;49.188;-0.374;2023-02-28T10:58:49;7.47;;;6.87;;
48861;SDS011;34681;49.188;-0.374;2023-02-28T11:04:19;6.70;;;6.20;;
48861;SDS011;34681;49.188;-0.374;2023-02-28T11:06:47;8.03;;;7.33;;
48861;SDS011;34681;49.188;-0.374;2023-02-28T11:09:28;7.30;;;6.60;;
48861;SDS011;34681;49.188;-0.374;2023-02-28T11:11:57;7.90;;;7.10;;
48861;SDS011;34681;49.188;-0.374;2023-02-28T11:14:30;7.67;;;7.07;;
48861;SDS011;34681;49.188;-0.374;2023-02-28T11:17:12;7.43;;;6.80;;
48861;SDS011;34681;49.188;-0.374;2023-02-28T11:19:46;8.23;;;6.60;;
48861;SDS011;34681;49.188;-0.374;2023-02-28T11:22:22;6.60;;;5.97;;
48861;SDS011;34681;49.188;-0.374;2023-02-28T11:24:52;7.90;;;7.30;;
48861;SDS011;34681;49.188;-0.374;2023-02-28T11:29:54;7.67;;;6.83;;
48861;SDS011;34681;49.188;-0.374;2023-02-28T11:32:23;10.27;;;7.07;;
48861;SDS011;34681;49.188;-0.374;2023-02-28T11:37:51;8.73;;;6.50;;
48861;SDS011;34681;49.188;-0.374;2023-02-28T11:40:31;7.87;;;7.27;;
48861;SDS011;34681;49.188;-0.374;2023-02-28T11:43:16;7.60;;;6.90;;
48861;SDS011;34681;49.188;-0.374;2023-02-28T11:51:13;7.90;;;7.20;;
48861;SDS011;34681;49.188;-0.374;2023-02-28T11:56:57;9.33;;;8.43;;
48861;SDS011;34681;49.188;-0.374;2023-02-28T12:02:23;10.47;;;8.03;;
48861;SDS011;34681;49.188;-0.374;2023-02-28T12:13:45;8.70;;;7.80;;
48861;SDS011;34681;49.188;-0.374;2023-02-28T12:19:15;9.70;;;8.80;;
48861;SDS011;34681;49.188;-0.374;2023-02-28T12:24:39;9.37;;;8.43;;
48861;SDS011;34681;49.188;-0.374;2023-02-28T12:27:19;9.67;;;8.77;;
48861;SDS011;34681;49.188;-0.374;2023-02-28T12:29:56;10.20;;;9.30;;
48861;SDS011;34681;49.188;-0.374;2023-02-28T12:32:30;10.70;;;8.23;;
48861;SDS011;34681;49.188;-0.374;2023-02-28T12:37:34;6.87;;;6.30;;
48861;SDS011;34681;49.188;-0.374;2023-02-28T12:40:15;13.10;;;6.93;;
48861;SDS011;34681;49.188;-0.374;2023-02-28T12:42:49;7.80;;;7.00;;
48861;SDS011;34681;49.188;-0.374;2023-02-28T12:47:54;9.03;;;8.23;;
48861;SDS011;34681;49.188;-0.374;2023-02-28T12:50:25;9.63;;;8.57;;
48861;SDS011;34681;49.188;-0.374;2023-02-28T12:53:09;11.60;;;8.00;;
48861;SDS011;34681;49.188;-0.374;2023-02-28T13:06:20;11.80;;;10.00;;
48861;SDS011;34681;49.188;-0.374;2023-02-28T13:09:03;11.00;;;9.90;;
48861;SDS011;34681;49.188;-0.374;2023-02-28T13:11:41;12.00;;;10.87;;
48861;SDS011;34681;49.188;-0.374;2023-02-28T13:14:51;11.57;;;10.50;;
48861;SDS011;34681;49.188;-0.374;2023-02-28T13:19:32;14.10;;;12.30;;
48861;SDS011;34681;49.188;-0.374;2023-02-28T13:21:59;12.57;;;11.47;;
48861;SDS011;34681;49.188;-0.374;2023-02-28T13:29:36;13.07;;;11.77;;
48861;SDS011;34681;49.188;-0.374;2023-02-28T13:47:36;13.43;;;12.30;;
48861;SDS011;34681;49.188;-0.374;2023-02-28T13:58:12;14.70;;;13.30;;
48861;SDS011;34681;49.188;-0.374;2023-02-28T14:06:38;16.70;;;14.67;;
48861;SDS011;34681;49.188;-0.374;2023-02-28T14:18:01;16.97;;;15.30;;
48861;SDS011;34681;49.188;-0.374;2023-02-28T14:20:31;18.00;;;15.87;;
48861;SDS011;34681;49.188;-0.374;2023-02-28T14:26:02;19.00;;;15.00;;
48861;SDS011;34681;49.188;-0.374;2023-02-28T14:31:47;16.40;;;14.67;;
48861;SDS011;34681;49.188;-0.374;2023-02-28T14:34:35;16.57;;;14.97;;
48861;SDS011;34681;49.188;-0.374;2023-02-28T14:37:16;16.83;;;15.43;;
48861;SDS011;34681;49.188;-0.374;2023-02-28T14:39:48;17.60;;;15.93;;
48861;SDS011;34681;49.188;-0.374;2023-02-28T14:42:34;16.63;;;14.93;;
48861;SDS011;34681;49.188;-0.374;2023-02-28T14:45:02;18.80;;;16.37;;
48861;SDS011;34681;49.188;-0.374;2023-02-28T14:47:30;16.13;;;14.37;;
48861;SDS011;34681;49.188;-0.374;2023-02-28T14:49:58;14.50;;;13.27;;
48861;SDS011;34681;49.188;-0.374;2023-02-28T14:52:26;18.90;;;14.83;;
48861;SDS011;34681;49.188;-0.374;2023-02-28T14:54:55;19.07;;;17.10;;
48861;SDS011;34681;49.188;-0.374;2023-02-28T14:57:32;16.27;;;14.60;;
48861;SDS011;34681;49.188;-0.374;2023-02-28T15:00:22;17.17;;;15.37;;
48861;SDS011;34681;49.188;-0.374;2023-02-28T15:02:53;15.83;;;14.43;;
48861;SDS011;34681;49.188;-0.374;2023-02-28T15:08:04;17.17;;;15.77;;
48861;SDS011;34681;49.188;-0.374;2023-02-28T15:10:39;19.10;;;17.20;;
48861;SDS011;34681;49.188;-0.374;2023-02-28T15:13:10;18.70;;;17.07;;
48861;SDS011;34681;49.188;-0.374;2023-02-28T15:15:47;17.47;;;16.00;;
48861;SDS011;34681;49.188;-0.374;2023-02-28T15:18:25;19.53;;;17.57;;
48861;SDS011;34681;49.188;-0.374;2023-02-28T15:21:02;18.87;;;17.07;;
48861;SDS011;34681;49.188;-0.374;2023-02-28T15:23:31;19.20;;;17.30;;
48861;SDS011;34681;49.188;-0.374;2023-02-28T15:25:57;17.13;;;15.23;;
48861;SDS011;34681;49.188;-0.374;2023-02-28T15:28:24;16.60;;;15.10;;
48861;SDS011;34681;49.188;-0.374;2023-02-28T15:30:51;18.70;;;17.00;;
48861;SDS011;34681;49.188;-0.374;2023-02-28T15:35:48;19.03;;;17.33;;
48861;SDS011;34681;49.188;-0.374;2023-02-28T15:38:24;19.27;;;17.57;;
48861;SDS011;34681;49.188;-0.374;2023-02-28T15:40:52;19.53;;;17.73;;
48861;SDS011;34681;49.188;-0.374;2023-02-28T15:45:50;17.57;;;15.80;;
48861;SDS011;34681;49.188;-0.374;2023-02-28T15:51:34;16.87;;;15.37;;
48861;SDS011;34681;49.188;-0.374;2023-02-28T15:54:04;15.10;;;13.80;;
48861;SDS011;34681;49.188;-0.374;2023-02-28T15:56:35;15.50;;;14.30;;
48861;SDS011;34681;49.188;-0.374;2023-02-28T15:59:08;15.73;;;14.43;;
48861;SDS011;34681;49.188;-0.374;2023-02-28T16:01:42;18.97;;;17.23;;
48861;SDS011;34681;49.188;-0.374;2023-02-28T16:04:18;18.17;;;16.60;;
48861;SDS011;34681;49.188;-0.374;2023-02-28T16:06:45;19.80;;;16.93;;
48861;SDS011;34681;49.188;-0.374;2023-02-28T16:09:14;16.80;;;15.10;;
48861;SDS011;34681;49.188;-0.374;2023-02-28T16:11:46;16.23;;;14.90;;
48861;SDS011;34681;49.188;-0.374;2023-02-28T16:14:15;18.00;;;16.47;;
48861;SDS011;34681;49.188;-0.374;2023-02-28T16:16:46;19.00;;;17.00;;
48861;SDS011;34681;49.188;-0.374;2023-02-28T16:19:13;15.10;;;13.80;;
48861;SDS011;34681;49.188;-0.374;2023-02-28T16:21:39;13.43;;;12.33;;
48861;SDS011;34681;49.188;-0.374;2023-02-28T16:24:04;15.73;;;14.23;;
48861;SDS011;34681;49.188;-0.374;2023-02-28T16:26:30;15.80;;;14.30;;
48861;SDS011;34681;49.188;-0.374;2023-02-28T16:28:59;16.43;;;14.83;;
48861;SDS011;34681;49.188;-0.374;2023-02-28T16:31:25;16.40;;;15.00;;
48861;SDS011;34681;49.188;-0.374;2023-02-28T16:33:50;19.03;;;17.23;;
48861;SDS011;34681;49.188;-0.374;2023-02-28T16:36:22;22.10;;;20.00;;
48861;SDS011;34681;49.188;-0.374;2023-02-28T16:38:53;18.93;;;17.20;;
48861;SDS011;34681;49.188;-0.374;2023-02-28T16:41:20;22.57;;;20.47;;
48861;SDS011;34681;49.188;-0.374;2023-02-28T16:43:48;23.83;;;21.13;;
48861;SDS011;34681;49.188;-0.374;2023-02-28T16:46:16;24.40;;;22.20;;
48861;SDS011;34681;49.188;-0.374;2023-02-28T16:48:43;22.83;;;20.63;;
48861;SDS011;34681;49.188;-0.374;2023-02-28T16:51:13;24.73;;;22.20;;
48861;SDS011;34681;49.188;-0.374;2023-02-28T16:53:39;22.30;;;20.17;;
48861;SDS011;34681;49.188;-0.374;2023-02-28T16:56:05;26.07;;;23.37;;
48861;SDS011;34681;49.188;-0.374;2023-02-28T16:58:32;24.70;;;22.20;;
48861;SDS011;34681;49.188;-0.374;2023-02-28T17:01:00;26.57;;;23.87;;
48861;SDS011;34681;49.188;-0.374;2023-02-28T17:03:26;25.70;;;23.00;;
48861;SDS011;34681;49.188;-0.374;2023-02-28T17:05:53;24.77;;;22.23;;
48861;SDS011;34681;49.188;-0.374;2023-02-28T17:08:19;24.60;;;22.03;;
48861;SDS011;34681;49.188;-0.374;2023-02-28T17:10:44;21.63;;;19.33;;
48861;SDS011;34681;49.188;-0.374;2023-02-28T17:13:10;22.87;;;20.50;;
48861;SDS011;34681;49.188;-0.374;2023-02-28T17:15:35;27.50;;;20.17;;
48861;SDS011;34681;49.188;-0.374;2023-02-28T17:18:02;27.17;;;20.60;;